Time;durP1;ratioP1;P1;durP2;ratioP2;P2;SDS_P1;SDS_P2;PMS_P1;PMS_P2;Temp;Humidity;BMP_temperature;BMP_pressure;BME280_temperature;BME280_humidity;BME280_pressure;Samples;Min_cycle;Max_cycle;Signal;HPM_P1;HPM_P2
2022/08/24 00:00:22;;;;;;;5.90;4.73;;;;;;;21.90;50.62;98819.75;7034660;28;20707;-80
2022/08/24 00:03:45;;;;;;;4.07;3.70;;;;;;;22.32;49.88;98859.47;7035419;28;20230;-80
2022/08/24 00:07:07;;;;;;;4.50;4.07;;;;;;;22.31;50.18;98868.78;7035593;28;20203;-80
2022/08/24 00:10:29;;;;;;;4.30;3.90;;;;;;;22.06;51.05;98860.63;7035135;28;20316;-80
2022/08/24 00:13:51;;;;;;;6.43;4.27;;;;;;;22.30;50.67;98871.84;7035290;28;20232;-80
2022/08/24 00:17:14;;;;;;;5.63;4.30;;;;;;;21.90;51.01;98863.69;7035258;28;20688;-80
2022/08/24 00:20:36;;;;;;;4.53;4.13;;;;;;;21.86;51.79;98868.91;7035002;28;20835;-80
2022/08/24 00:23:57;;;;;;;6.97;4.07;;;;;;;21.88;51.62;98887.81;7035213;28;20225;-80
2022/08/24 00:27:20;;;;;;;5.00;4.10;;;;;;;22.12;50.65;98878.72;7034879;28;20206;-80
2022/08/24 00:30:42;;;;;;;5.13;4.10;;;;;;;21.81;51.41;98881.78;7034333;28;20302;-80
2022/08/24 00:34:05;;;;;;;5.60;4.10;;;;;;;21.70;51.35;98859.00;7035397;28;20225;-80
2022/08/24 00:37:28;;;;;;;4.50;4.10;;;;;;;21.91;51.18;98884.53;7034467;28;20569;-80
2022/08/24 00:40:50;;;;;;;4.40;4.00;;;;;;;21.70;51.73;98886.47;7034860;28;20227;-80
2022/08/24 00:44:13;;;;;;;7.23;4.53;;;;;;;21.62;51.51;98894.38;7034240;28;20254;-80
2022/08/24 00:47:39;;;;;;;5.00;4.27;;;;;;;21.64;52.39;98886.69;7014975;28;20589;-79
2022/08/24 00:51:05;;;;;;;4.57;4.10;;;;;;;21.66;52.02;98882.56;7006814;28;20219;-80
2022/08/24 00:54:28;;;;;;;4.37;3.97;;;;;;;21.62;50.83;98828.53;7006072;28;20254;-79
2022/08/24 00:57:54;;;;;;;4.53;3.90;;;;;;;21.94;50.06;98879.31;7005659;28;20209;-80
2022/08/24 01:01:17;;;;;;;4.17;3.87;;;;;;;21.37;52.38;98889.69;7005493;28;20217;-82
2022/08/24 01:04:44;;;;;;;5.60;4.13;;;;;;;21.24;52.02;98871.03;7005900;28;20261;-82
2022/08/24 01:08:10;;;;;;;4.97;4.43;;;;;;;21.13;52.93;98896.78;7005126;28;20209;-80
2022/08/24 01:11:32;;;;;;;5.87;4.47;;;;;;;21.28;52.13;98876.78;7006223;28;20227;-80
2022/08/24 01:14:56;;;;;;;4.70;4.10;;;;;;;21.39;52.61;98897.66;7006024;28;20304;-80
2022/08/24 01:22:13;;;;;;;4.77;3.90;;;;;;;21.42;51.24;98872.44;7006356;28;20206;-80
2022/08/24 01:25:38;;;;;;;4.70;4.20;;;;;;;21.37;51.53;98886.13;7005720;28;20237;-80
2022/08/24 01:29:02;;;;;;;6.13;4.10;;;;;;;21.11;52.35;98887.16;7005918;28;20285;-80
2022/08/24 01:32:26;;;;;;;4.40;4.00;;;;;;;20.76;53.52;98884.28;7006026;28;20229;-80
2022/08/24 01:35:48;;;;;;;4.70;4.30;;;;;;;20.65;54.07;98892.75;7005431;28;20282;-80
2022/08/24 01:39:11;;;;;;;4.53;4.00;;;;;;;20.80;53.72;98899.09;7004931;28;20255;-80
2022/08/24 01:42:34;;;;;;;4.23;3.80;;;;;;;20.91;52.54;98873.41;7005045;28;20664;-80
2022/08/24 01:45:56;;;;;;;7.50;4.27;;;;;;;20.39;53.97;98891.78;7005123;28;20727;-80
2022/08/24 01:49:18;;;;;;;5.00;4.50;;;;;;;20.50;54.07;98898.13;7004578;28;20206;-80
2022/08/24 01:52:41;;;;;;;4.73;4.23;;;;;;;20.69;53.59;98907.56;7006151;28;20571;-80
2022/08/24 01:56:04;;;;;;;4.70;4.30;;;;;;;20.89;52.81;98897.53;7006085;28;20237;-80
2022/08/24 01:59:27;;;;;;;4.70;4.30;;;;;;;19.53;56.83;98897.72;7003616;28;20239;-80
2022/08/24 02:02:49;;;;;;;4.27;3.87;;;;;;;20.57;53.94;98904.22;7004852;28;20203;-80
2022/08/24 02:06:11;;;;;;;4.87;4.00;;;;;;;20.75;53.32;98907.31;7004663;28;20238;-80
2022/08/24 02:09:32;;;;;;;6.23;4.83;;;;;;;20.75;53.10;98909.25;7004128;28;20275;-79
2022/08/24 02:12:57;;;;;;;4.00;3.63;;;;;;;20.77;53.23;98915.25;7004752;28;20355;-80
2022/08/24 02:16:20;;;;;;;4.90;4.40;;;;;;;20.47;52.85;98879.50;7004637;28;20228;-80
2022/08/24 02:19:42;;;;;;;5.70;3.93;;;;;;;20.81;52.40;98900.75;7010995;28;20254;-79
2022/08/24 02:23:05;;;;;;;4.93;4.10;;;;;;;20.86;52.44;98916.41;7019304;28;20191;-79
2022/08/24 02:26:27;;;;;;;5.53;4.03;;;;;;;20.80;52.41;98909.25;7032717;28;20215;-78
2022/08/24 02:29:48;;;;;;;6.20;3.77;;;;;;;20.83;52.27;98901.31;7024009;28;20202;-80
2022/08/24 02:33:11;;;;;;;4.90;4.13;;;;;;;20.52;52.93;98910.47;7011461;28;20206;-80
2022/08/24 02:36:33;;;;;;;4.73;4.07;;;;;;;20.21;53.84;98888.66;7010677;28;20218;-80
2022/08/24 02:39:54;;;;;;;4.23;3.83;;;;;;;20.13;53.62;98886.44;7010341;28;20225;-79
2022/08/24 02:43:16;;;;;;;5.93;4.10;;;;;;;20.08;54.31;98887.22;7011771;28;20659;-80
2022/08/24 02:46:38;;;;;;;5.80;3.93;;;;;;;20.40;53.11;98906.31;7012755;28;20238;-79
2022/08/24 02:50:02;;;;;;;4.00;3.70;;;;;;;20.69;51.81;98897.41;7013562;28;20206;-80
2022/08/24 02:53:24;;;;;;;5.20;4.43;;;;;;;19.35;55.76;98906.28;7025109;28;20194;-79
2022/08/24 02:56:46;;;;;;;9.27;4.40;;;;;;;19.97;54.52;98906.53;7018331;28;20269;-80
2022/08/24 03:00:11;;;;;;;4.73;4.10;;;;;;;20.17;53.39;98907.53;7004378;28;20279;-80
2022/08/24 03:03:33;;;;;;;4.63;4.03;;;;;;;19.98;54.12;98898.06;7005015;28;20221;-80
2022/08/24 03:06:56;;;;;;;4.97;4.47;;;;;;;19.69;54.93;98904.16;7004940;28;20253;-80
2022/08/24 03:10:17;;;;;;;4.93;3.77;;;;;;;19.61;55.17;98902.72;7004753;28;20205;-80
2022/08/24 03:13:39;;;;;;;5.37;4.00;;;;;;;19.59;55.17;98913.09;7004941;28;20316;-80
2022/08/24 03:17:01;;;;;;;4.03;3.67;;;;;;;19.57;55.39;98898.03;7004555;28;20198;-80
2022/08/24 03:20:23;;;;;;;4.80;4.27;;;;;;;19.48;55.40;98885.91;7005210;28;20226;-80
2022/08/24 03:23:46;;;;;;;4.77;3.90;;;;;;;19.56;54.89;98869.00;7005239;28;20275;-80
2022/08/24 03:27:07;;;;;;;4.27;3.97;;;;;;;19.56;54.86;98897.19;7005386;28;20288;-80
2022/08/24 03:30:29;;;;;;;5.50;3.70;;;;;;;19.61;54.50;98853.47;7003704;28;20292;-80
2022/08/24 03:33:50;;;;;;;6.47;4.13;;;;;;;19.70;54.41;98892.13;7005012;28;20773;-80
2022/08/24 03:37:12;;;;;;;6.43;3.93;;;;;;;19.57;54.80;98895.28;7004475;28;20292;-79
2022/08/24 03:40:35;;;;;;;5.83;4.10;;;;;;;19.60;54.42;98889.28;7003645;28;20264;-80
2022/08/24 03:43:57;;;;;;;4.10;3.70;;;;;;;19.89;53.69;98883.25;7004409;28;20360;-80
2022/08/24 03:47:21;;;;;;;5.07;4.20;;;;;;;19.21;55.63;98888.66;7003543;28;20236;-80
2022/08/24 03:50:45;;;;;;;5.90;4.00;;;;;;;19.22;55.06;98868.44;7004261;28;20220;-80
2022/08/24 03:54:08;;;;;;;3.70;3.40;;;;;;;19.66;54.28;98897.28;7003936;28;20218;-80
2022/08/24 03:57:31;;;;;;;4.73;4.33;;;;;;;19.32;54.55;98895.03;7002251;28;20229;-80
2022/08/24 04:00:52;;;;;;;4.73;3.80;;;;;;;19.86;53.48;98880.22;7000970;28;20234;-81
2022/08/24 04:04:14;;;;;;;4.70;4.30;;;;;;;19.54;53.79;98891.16;7002528;28;20375;-80
2022/08/24 04:07:35;;;;;;;8.50;4.10;;;;;;;19.29;55.05;98890.91;7003226;28;20677;-80
2022/08/24 04:10:57;;;;;;;4.20;3.90;;;;;;;19.10;55.46;98897.78;7003841;28;20205;-80
2022/08/24 04:14:20;;;;;;;5.37;4.37;;;;;;;19.42;54.85;98901.44;7003894;28;20256;-80
2022/08/24 04:17:41;;;;;;;4.40;3.60;;;;;;;19.38;54.03;98907.66;7004055;28;20274;-79
2022/08/24 04:21:03;;;;;;;5.73;3.67;;;;;;;19.24;54.54;98882.69;7020589;28;20364;-79
2022/08/24 04:24:25;;;;;;;7.20;3.70;;;;;;;19.56;54.07;98899.94;7014224;28;20222;-79
2022/08/24 04:27:47;;;;;;;3.77;3.33;;;;;;;19.74;53.53;98899.53;7026061;28;20202;-79
2022/08/24 04:31:10;;;;;;;3.80;3.50;;;;;;;19.59;53.49;98904.88;7029867;28;20259;-79
2022/08/24 04:34:31;;;;;;;3.60;3.30;;;;;;;19.31;54.46;98907.91;7019726;28;20217;-79
2022/08/24 04:37:53;;;;;;;3.90;3.60;;;;;;;19.14;54.91;98903.56;7017516;28;20662;-80
2022/08/24 04:41:18;;;;;;;4.27;3.47;;;;;;;19.21;54.60;98913.25;7034733;28;20269;-80
2022/08/24 04:44:40;;;;;;;3.77;3.30;;;;;;;19.32;53.75;98904.06;7036261;28;20716;-81
2022/08/24 04:48:03;;;;;;;4.07;3.67;;;;;;;19.55;53.22;98902.91;7033353;28;20194;-80
2022/08/24 04:51:25;;;;;;;4.90;3.97;;;;;;;19.67;53.22;98925.44;7008784;28;20229;-80
2022/08/24 04:54:46;;;;;;;6.43;3.20;;;;;;;19.76;52.34;98923.91;7032334;28;20325;-83
2022/08/24 04:58:08;;;;;;;4.37;3.90;;;;;;;19.73;53.08;98935.34;7035887;28;20225;-80
2022/08/24 05:01:31;;;;;;;4.60;3.53;;;;;;;19.86;52.80;98937.69;7035028;28;20233;-81
2022/08/24 05:04:56;;;;;;;4.37;3.57;;;;;;;19.88;53.14;98943.69;7027303;28;20600;-80
2022/08/24 05:08:19;;;;;;;4.27;3.97;;;;;;;20.02;52.02;98950.38;7035216;28;20659;-80
2022/08/24 05:11:40;;;;;;;3.63;3.33;;;;;;;20.15;51.88;98941.72;7034847;28;20212;-83
2022/08/24 05:15:02;;;;;;;4.30;3.87;;;;;;;20.19;51.93;98943.72;7035881;28;20363;-80
2022/08/24 05:18:24;;;;;;;3.80;3.50;;;;;;;20.28;51.28;98946.78;7014921;28;20216;-80
2022/08/24 05:21:47;;;;;;;3.97;3.57;;;;;;;19.55;52.75;98911.97;7014489;28;20274;-79
2022/08/24 05:25:09;;;;;;;6.27;3.67;;;;;;;19.72;53.58;98948.22;7034456;28;20221;-79
2022/08/24 05:28:30;;;;;;;4.07;3.67;;;;;;;19.90;52.89;98938.78;7031486;28;20236;-80
2022/08/24 05:31:52;;;;;;;3.37;3.07;;;;;;;20.04;52.73;98940.81;7027816;28;20202;-80
2022/08/24 05:35:14;;;;;;;3.97;3.37;;;;;;;19.87;53.29;98934.66;7007039;28;20225;-80
2022/08/24 05:38:37;;;;;;;4.77;3.60;;;;;;;20.09;53.27;98946.38;7006440;28;20335;-80
2022/08/24 05:41:59;;;;;;;5.53;3.83;;;;;;;20.52;52.17;98946.09;7009131;28;20253;-79
2022/08/24 05:45:21;;;;;;;8.80;4.03;;;;;;;20.57;51.53;98940.66;7006494;28;20234;-79
2022/08/24 05:48:42;;;;;;;4.70;3.17;;;;;;;21.06;50.17;98952.16;7006043;28;20290;-79
2022/08/24 05:52:04;;;;;;;3.33;3.13;;;;;;;21.31;49.52;98942.09;7006208;28;20669;-79
2022/08/24 05:55:27;;;;;;;4.20;3.20;;;;;;;21.79;48.39;98955.34;7007002;28;20237;-79
2022/08/24 05:58:49;;;;;;;6.87;3.67;;;;;;;21.97;47.81;98957.56;7006939;28;20222;-79
2022/08/24 06:02:10;;;;;;;3.43;3.10;;;;;;;22.22;46.90;98950.13;7014757;28;20278;-79
2022/08/24 06:05:32;;;;;;;5.43;3.30;;;;;;;22.53;46.42;98967.44;7036215;28;20288;-79
2022/08/24 06:08:56;;;;;;;3.13;2.93;;;;;;;22.61;46.75;98955.88;7020206;28;20278;-80
2022/08/24 06:12:19;;;;;;;5.57;3.33;;;;;;;22.70;45.63;98956.94;7041352;28;20308;-79
2022/08/24 06:15:41;;;;;;;4.50;4.00;;;;;;;22.59;46.02;98922.34;7033128;28;20232;-79
2022/08/24 06:19:03;;;;;;;4.50;3.60;;;;;;;23.31;45.45;98958.38;7024928;28;20269;-79
2022/08/24 06:22:25;;;;;;;7.50;3.40;;;;;;;23.69;43.54;98955.66;7032491;28;20263;-79
2022/08/24 06:29:27;;;;;;;5.13;3.43;;;;;;;24.28;42.66;98949.97;7031625;28;20188;-79
2022/08/24 06:32:48;;;;;;;3.57;3.27;;;;;;;24.34;42.92;98954.31;7032254;28;20208;-79
2022/08/24 06:36:10;;;;;;;5.07;3.43;;;;;;;24.46;42.57;98952.81;7031744;28;20263;-79
2022/08/24 06:39:31;;;;;;;5.67;3.50;;;;;;;25.15;41.63;98955.94;7031342;28;20212;-79
2022/08/24 06:42:53;;;;;;;4.23;3.37;;;;;;;25.27;41.17;98961.88;7032292;28;20316;-79
2022/08/24 06:46:16;;;;;;;4.90;3.40;;;;;;;25.86;40.81;98948.31;7031619;28;20233;-79
2022/08/24 06:49:37;;;;;;;4.77;3.43;;;;;;;26.15;40.53;98960.03;7031248;28;20292;-79
2022/08/24 06:53:00;;;;;;;4.00;3.37;;;;;;;27.19;37.86;98956.41;7031915;28;20291;-79
2022/08/24 06:56:21;;;;;;;4.83;3.47;;;;;;;27.88;36.62;98957.91;7014605;28;20230;-79
2022/08/24 06:59:43;;;;;;;5.00;3.17;;;;;;;27.99;36.23;98956.56;7003262;28;20217;-80
2022/08/24 07:03:06;;;;;;;4.63;2.90;;;;;;;27.04;37.56;98961.41;7003667;28;20594;-79
2022/08/24 07:06:28;;;;;;;4.67;3.30;;;;;;;26.78;37.18;98968.59;7003629;28;20249;-79
2022/08/24 07:09:49;;;;;;;5.63;3.07;;;;;;;27.94;35.12;98965.81;7003190;28;20571;-79
2022/08/24 07:13:12;;;;;;;3.67;2.60;;;;;;;28.46;34.97;98944.84;7003575;28;20283;-80
2022/08/24 07:16:34;;;;;;;2.90;2.70;;;;;;;28.54;34.37;98952.41;7003406;28;20206;-79
2022/08/24 07:19:57;;;;;;;2.53;2.33;;;;;;;29.16;32.99;98971.50;7002196;28;20204;-80
2022/08/24 07:23:19;;;;;;;5.57;3.07;;;;;;;28.23;34.54;98982.84;7003176;28;20247;-79
2022/08/24 07:26:41;;;;;;;3.37;3.07;;;;;;;28.43;33.60;98895.56;7003117;28;20207;-79
2022/08/24 07:30:02;;;;;;;2.80;2.60;;;;;;;28.06;35.53;98960.53;7005227;28;20231;-79
2022/08/24 07:33:24;;;;;;;4.50;2.50;;;;;;;29.61;32.87;98972.13;7029159;28;20214;-80
2022/08/24 07:36:49;;;;;;;3.70;2.60;;;;;;;30.06;32.32;98977.06;7013114;28;20239;-80
2022/08/24 07:40:11;;;;;;;2.83;2.60;;;;;;;29.39;33.37;98981.38;7002547;28;20207;-80
2022/08/24 07:43:33;;;;;;;5.70;2.50;;;;;;;30.22;30.31;98919.81;7002277;28;20264;-80
2022/08/24 07:46:54;;;;;;;3.93;2.43;;;;;;;30.37;30.47;98974.13;7002782;28;20303;-80
2022/08/24 07:50:17;;;;;;;2.97;2.63;;;;;;;30.06;30.54;98948.41;7002412;28;20212;-80
2022/08/24 07:53:40;;;;;;;3.03;2.30;;;;;;;30.16;31.00;98964.81;7003338;28;20233;-80
2022/08/24 07:57:05;;;;;;;3.73;2.40;;;;;;;31.14;29.92;98977.53;7002571;28;20229;-80
2022/08/24 08:00:26;;;;;;;2.93;2.60;;;;;;;30.29;29.84;98950.72;7000842;28;20235;-80
2022/08/24 08:03:49;;;;;;;2.50;2.30;;;;;;;30.65;29.51;98962.31;7006554;28;20836;-80
2022/08/24 08:07:13;;;;;;;2.50;2.30;;;;;;;30.76;29.49;98963.56;7008061;28;20554;-80
2022/08/24 08:10:36;;;;;;;3.67;2.40;;;;;;;30.94;28.89;98970.72;7007013;28;20217;-80
2022/08/24 08:13:58;;;;;;;2.70;2.50;;;;;;;32.09;27.69;98966.28;7007759;28;20321;-80
2022/08/24 08:17:19;;;;;;;3.23;2.20;;;;;;;32.25;26.40;98967.31;7007311;28;20975;-80
2022/08/24 08:20:42;;;;;;;2.20;2.10;;;;;;;32.13;27.40;98958.84;7007914;28;20212;-80
2022/08/24 08:24:15;;;;;;;2.83;2.10;;;;;;;30.35;27.83;98965.28;7007699;28;20250;-79
2022/08/24 08:27:38;;;;;;;2.93;2.10;;;;;;;30.35;28.60;98965.28;7007143;28;20600;-80
2022/08/24 08:31:00;;;;;;;2.10;1.90;;;;;;;31.01;26.61;98962.66;7008288;28;20688;-80
2022/08/24 08:34:21;;;;;;;2.10;1.73;;;;;;;30.84;26.31;98959.13;7008448;28;20234;-79
2022/08/24 08:37:43;;;;;;;4.13;2.00;;;;;;;31.09;26.38;98952.63;7006537;28;20206;-79
2022/08/24 08:41:20;;;;;;;2.27;2.07;;;;;;;31.37;25.04;98943.47;7008402;28;20258;-80
2022/08/24 08:44:53;;;;;;;3.40;1.80;;;;;;;29.76;27.49;98935.50;7007730;28;20733;-80
2022/08/24 08:48:49;;;;;;;1.70;1.60;;;;;;;31.38;26.18;98947.91;7007469;28;20698;-82
2022/08/24 08:52:28;;;;;;;2.20;2.00;;;;;;;31.82;25.34;98933.38;7010133;28;20191;-84
2022/08/24 08:56:00;;;;;;;1.70;1.60;;;;;;;31.80;25.55;98937.66;7008584;28;20243;-82
2022/08/24 08:59:35;;;;;;;2.73;1.77;;;;;;;32.51;24.17;98953.94;7032510;28;20196;-82
2022/08/24 09:03:25;;;;;;;3.37;2.00;;;;;;;31.77;25.18;98939.13;7034607;28;20285;-81
2022/08/24 09:07:07;;;;;;;1.83;1.73;;;;;;;31.36;25.64;98933.50;7036508;28;20214;-81
2022/08/24 09:10:49;;;;;;;2.80;2.00;;;;;;;30.81;27.13;98929.16;7036650;28;20208;-81
2022/08/24 09:14:35;;;;;;;1.80;1.70;;;;;;;31.51;26.25;98927.34;7025440;28;20358;-81
2022/08/24 09:18:05;;;;;;;2.37;2.17;;;;;;;31.06;27.21;98942.16;7036614;28;20187;-82
2022/08/24 09:22:04;;;;;;;2.03;1.87;;;;;;;32.11;26.58;98933.28;7037698;28;20218;-81
2022/08/24 09:25:30;;;;;;;2.13;1.87;;;;;;;31.58;27.17;98930.41;6967145;28;20240;-80
2022/08/24 09:28:57;;;;;;;2.80;2.00;;;;;;;32.39;27.73;98944.69;7040582;28;20218;-81
2022/08/24 09:32:30;;;;;;;2.17;1.97;;;;;;;32.02;27.11;98934.50;7035090;28;20229;-81
2022/08/24 09:36:06;;;;;;;2.00;1.90;;;;;;;32.70;26.68;98931.84;7035729;28;20224;-81
2022/08/24 09:39:40;;;;;;;1.90;1.80;;;;;;;33.03;25.75;98935.44;7034818;28;20218;-81
2022/08/24 09:43:46;;;;;;;2.67;2.00;;;;;;;31.59;27.70;98939.56;7034169;28;20212;-81
2022/08/24 09:47:43;;;;;;;3.60;2.20;;;;;;;32.42;27.64;98930.84;7033736;28;20196;-80
2022/08/24 09:51:43;;;;;;;6.17;4.03;;;;;;;32.01;27.26;98930.09;7033500;28;20202;-81
2022/08/24 09:55:37;;;;;;;2.23;2.03;;;;;;;32.28;27.89;98932.31;7033607;28;20261;-80
2022/08/24 09:59:07;;;;;;;2.27;2.10;;;;;;;32.58;26.85;98928.22;7056821;28;20184;-84
2022/08/24 10:02:54;;;;;;;3.27;1.90;;;;;;;33.60;25.63;98930.50;7034031;28;20208;-82
2022/08/24 10:06:23;;;;;;;2.00;1.90;;;;;;;32.84;26.69;98917.59;7032252;28;20228;-83
2022/08/24 10:10:09;;;;;;;2.10;1.90;;;;;;;33.59;25.09;98916.88;7033803;28;20205;-82
2022/08/24 10:13:38;;;;;;;1.83;1.63;;;;;;;33.04;26.22;98913.88;7035990;28;20224;-82
2022/08/24 10:17:05;;;;;;;3.70;2.03;;;;;;;33.82;25.18;98923.59;7035350;28;20293;-81
2022/08/24 10:20:29;;;;;;;2.10;1.83;;;;;;;33.87;24.93;98907.41;7033662;28;20217;-81
2022/08/24 10:24:17;;;;;;;2.10;2.00;;;;;;;34.28;24.40;98900.59;7012097;28;20240;-82
2022/08/24 10:27:54;;;;;;;2.33;1.67;;;;;;;33.84;24.24;98887.72;7002777;28;20279;-82
2022/08/24 10:31:26;;;;;;;2.00;1.90;;;;;;;34.04;24.14;98909.09;7004741;28;20720;-80
2022/08/24 10:34:58;;;;;;;3.30;1.80;;;;;;;34.81;23.29;98898.09;7004261;28;20233;-81
2022/08/24 10:46:45;;;;;;;2.60;1.70;;;;;;;35.13;21.21;98877.25;7003924;28;20222;-81
2022/08/24 10:50:26;;;;;;;2.00;1.70;;;;;;;35.82;21.10;98859.63;7004591;28;20231;-81
2022/08/24 10:53:49;;;;;;;1.70;1.53;;;;;;;36.15;20.75;98876.78;7004896;28;20717;-81
2022/08/24 10:57:18;;;;;;;2.43;1.60;;;;;;;35.91;20.84;98849.81;7005319;28;20217;-80
2022/08/24 11:00:40;;;;;;;1.80;1.70;;;;;;;34.28;22.93;98881.84;7006096;28;20655;-82
2022/08/24 11:04:06;;;;;;;2.00;1.90;;;;;;;35.63;21.89;98857.63;7006216;28;20233;-82
2022/08/24 11:07:29;;;;;;;2.13;1.70;;;;;;;36.38;20.88;98886.09;7005530;28;20545;-82
2022/08/24 11:11:08;;;;;;;1.60;1.50;;;;;;;35.21;20.26;98890.28;7030271;28;20233;-82
2022/08/24 11:14:30;;;;;;;2.50;1.60;;;;;;;34.61;20.95;98887.91;7034346;28;20286;-82
2022/08/24 11:17:55;;;;;;;1.57;1.47;;;;;;;35.28;20.45;98856.84;7033160;28;20228;-81
2022/08/24 11:21:32;;;;;;;1.90;1.70;;;;;;;34.19;21.61;98881.13;7032920;28;20342;-82
2022/08/24 11:24:58;;;;;;;1.93;1.83;;;;;;;33.51;22.58;98882.31;7033732;28;20225;-82
2022/08/24 11:28:24;;;;;;;1.90;1.70;;;;;;;34.47;22.43;98865.13;7027975;28;20286;-81
2022/08/24 11:31:50;;;;;;;1.47;1.40;;;;;;;34.97;21.29;98872.84;7006271;28;20209;-82
2022/08/24 11:35:22;;;;;;;2.07;1.90;;;;;;;34.43;21.49;98850.22;7006107;28;20232;-81
2022/08/24 11:38:45;;;;;;;1.80;1.70;;;;;;;34.49;21.78;98871.19;7007396;28;20194;-82
2022/08/24 11:42:15;;;;;;;2.00;1.80;;;;;;;34.76;21.37;98852.69;7009231;28;20229;-82
2022/08/24 11:45:42;;;;;;;1.67;1.57;;;;;;;34.92;22.09;98851.53;7009481;28;20225;-81
2022/08/24 11:49:09;;;;;;;1.80;1.70;;;;;;;34.74;22.10;98853.06;7009874;28;20210;-81
2022/08/24 11:52:39;;;;;;;4.33;2.10;;;;;;;35.79;20.23;98849.97;7017224;28;20220;-82
2022/08/24 11:56:06;;;;;;;1.70;1.60;;;;;;;34.60;20.76;98860.28;7038803;28;20299;-82
2022/08/24 11:59:36;;;;;;;1.90;1.43;;;;;;;35.73;19.41;98834.59;7038465;28;20276;-81
2022/08/24 12:03:03;;;;;;;1.53;1.43;;;;;;;36.40;19.06;98848.00;7035516;28;20209;-82
2022/08/24 12:06:43;;;;;;;1.50;1.40;;;;;;;36.38;18.74;98858.78;7009310;28;20233;-82
2022/08/24 12:10:19;;;;;;;1.50;1.40;;;;;;;33.89;21.28;98840.69;7010477;28;20194;-82
2022/08/24 12:13:46;;;;;;;1.50;1.40;;;;;;;33.53;21.39;98842.78;7009773;28;20702;-82
2022/08/24 12:17:15;;;;;;;1.40;1.30;;;;;;;34.77;20.22;98831.91;7035999;28;20284;-81
2022/08/24 12:20:40;;;;;;;1.73;1.60;;;;;;;34.47;20.08;98848.34;7036732;28;20211;-82
2022/08/24 12:24:04;;;;;;;1.90;1.70;;;;;;;33.41;21.46;98854.00;7038084;28;20290;-82
2022/08/24 12:27:29;;;;;;;3.10;1.53;;;;;;;33.95;20.97;98844.06;7038282;28;20209;-81
2022/08/24 12:30:53;;;;;;;2.93;1.40;;;;;;;32.50;22.80;98837.00;7038984;28;20193;-82
2022/08/24 12:34:18;;;;;;;1.77;1.67;;;;;;;34.26;20.96;98844.97;7039350;28;20279;-82
2022/08/24 12:37:43;;;;;;;1.33;1.23;;;;;;;33.96;21.30;98838.09;7040587;28;20204;-82
2022/08/24 12:41:11;;;;;;;2.43;1.83;;;;;;;33.90;22.10;98835.94;7054323;28;20292;-81
2022/08/24 12:44:41;;;;;;;1.63;1.53;;;;;;;33.16;22.45;98852.38;7050475;28;20231;-81
2022/08/24 12:48:08;;;;;;;1.73;1.63;;;;;;;33.59;22.39;98844.16;7034242;28;20292;-81
2022/08/24 12:51:41;;;;;;;1.63;1.53;;;;;;;33.61;22.27;98814.66;7036571;28;20228;-81
2022/08/24 12:55:23;;;;;;;2.07;1.90;;;;;;;33.87;22.14;98840.25;7033003;28;20239;-82
2022/08/24 12:58:55;;;;;;;1.77;1.67;;;;;;;33.61;22.15;98839.84;7036026;28;20286;-81
2022/08/24 13:02:31;;;;;;;1.30;1.30;;;;;;;34.46;21.44;98852.31;7033058;28;20239;-81
2022/08/24 13:06:00;;;;;;;2.13;1.60;;;;;;;34.05;22.37;98844.34;7035901;28;20220;-81
2022/08/24 13:09:32;;;;;;;2.30;1.50;;;;;;;34.49;21.90;98850.78;7035098;28;20203;-81
2022/08/24 13:13:10;;;;;;;1.70;1.60;;;;;;;34.47;22.58;98845.53;7032152;28;20200;-81
2022/08/24 13:16:47;;;;;;;2.13;1.63;;;;;;;34.14;22.70;98833.00;7035042;28;20194;-81
2022/08/24 13:20:21;;;;;;;1.87;1.77;;;;;;;34.55;22.53;98824.13;7033454;28;20231;-81
2022/08/24 13:23:42;;;;;;;1.90;1.80;;;;;;;34.77;22.53;98826.31;7034445;28;20666;-81
2022/08/24 13:27:49;;;;;;;2.53;1.80;;;;;;;33.99;23.44;98831.78;7034790;28;20208;-81
2022/08/24 13:31:25;;;;;;;2.50;1.87;;;;;;;34.26;23.69;98832.97;7012363;28;20218;-81
2022/08/24 13:34:50;;;;;;;1.77;1.67;;;;;;;34.17;24.08;98826.66;7007343;28;20255;-81
2022/08/24 13:38:44;;;;;;;1.67;1.47;;;;;;;33.21;24.25;98827.81;7005506;28;20674;-81
2022/08/24 13:42:20;;;;;;;2.13;2.03;;;;;;;32.95;25.07;98841.34;6971924;28;20255;-81
2022/08/24 13:45:47;;;;;;;1.97;1.87;;;;;;;33.03;25.56;98832.03;7006032;28;20710;-80
2022/08/24 13:49:21;;;;;;;2.00;1.90;;;;;;;33.59;25.13;98827.38;7024275;28;20286;-81
2022/08/24 13:52:49;;;;;;;2.17;1.80;;;;;;;33.97;24.78;98783.75;7033553;28;20425;-81
2022/08/24 13:56:22;;;;;;;2.97;2.00;;;;;;;32.80;26.98;98827.28;7033935;28;20267;-80
2022/08/24 14:00:09;;;;;;;2.30;1.90;;;;;;;33.25;26.04;98830.72;7031494;28;20212;-81
2022/08/24 14:03:52;;;;;;;3.37;1.83;;;;;;;34.22;25.19;98820.81;7005359;28;20316;-81
2022/08/24 14:07:18;;;;;;;1.80;1.70;;;;;;;34.88;23.61;98814.19;7005083;28;20186;-80
2022/08/24 14:10:49;;;;;;;2.10;1.70;;;;;;;34.22;25.04;98816.03;7006048;28;20191;-81
2022/08/24 14:14:14;;;;;;;3.40;1.80;;;;;;;33.29;25.91;98814.88;7006034;28;20228;-82
2022/08/24 14:17:54;;;;;;;2.27;1.83;;;;;;;33.33;25.91;98816.66;7004566;28;20205;-81
2022/08/24 14:21:19;;;;;;;2.07;1.93;;;;;;;33.70;25.69;98801.34;7005263;28;20190;-82
2022/08/24 14:24:43;;;;;;;2.77;2.20;;;;;;;34.09;25.65;98796.88;7016218;28;20240;-80
2022/08/24 14:28:39;;;;;;;2.30;2.10;;;;;;;34.32;25.84;98801.53;7021531;28;20220;-81
2022/08/24 14:32:40;;;;;;;2.27;1.70;;;;;;;34.32;25.48;98795.91;6945511;28;20702;-81
2022/08/24 14:36:14;;;;;;;2.30;2.10;;;;;;;34.29;25.54;98793.84;6973674;28;20232;-81
2022/08/24 14:39:39;;;;;;;2.10;1.60;;;;;;;34.17;25.70;98798.69;7030982;28;20209;-82
2022/08/24 14:43:15;;;;;;;3.93;2.20;;;;;;;33.87;26.37;98801.09;7032307;28;20231;-82
2022/08/24 14:46:47;;;;;;;2.93;2.30;;;;;;;33.62;26.09;98791.16;7031416;28;20240;-81
2022/08/24 14:50:15;;;;;;;2.30;2.10;;;;;;;33.85;26.25;98794.22;7006171;28;20268;-81
2022/08/24 14:53:51;;;;;;;3.77;2.70;;;;;;;32.93;27.63;98800.94;7030162;28;20223;-82
2022/08/24 14:57:34;;;;;;;5.07;2.50;;;;;;;33.38;27.11;98777.22;7031004;28;20201;-80
2022/08/24 15:01:11;;;;;;;3.40;2.10;;;;;;;32.73;28.00;98777.53;7032078;28;20197;-79
2022/08/24 15:04:46;;;;;;;2.00;1.90;;;;;;;33.71;26.66;98775.00;7028712;28;20270;-81
2022/08/24 15:08:11;;;;;;;1.80;1.70;;;;;;;33.80;26.62;98778.50;7017899;28;20712;-81
2022/08/24 15:11:36;;;;;;;1.90;1.80;;;;;;;33.70;26.81;98758.56;7008297;28;20193;-82
2022/08/24 15:15:04;;;;;;;2.47;1.90;;;;;;;34.14;26.31;98769.41;7026050;28;20220;-82
2022/08/24 15:18:33;;;;;;;2.00;1.90;;;;;;;33.85;26.44;98757.84;7032041;28;20660;-82
2022/08/24 15:21:57;;;;;;;4.57;2.00;;;;;;;33.70;26.76;98751.00;7033826;28;20199;-85
2022/08/24 15:25:31;;;;;;;2.90;1.80;;;;;;;34.30;26.42;98767.47;7016108;28;20709;-80
2022/08/24 15:28:54;;;;;;;2.20;2.00;;;;;;;34.37;26.35;98764.84;7005289;28;20335;-79
2022/08/24 15:32:16;;;;;;;2.17;1.97;;;;;;;34.49;26.20;98747.94;7009991;28;20217;-83
2022/08/24 15:35:41;;;;;;;2.03;1.83;;;;;;;33.95;26.95;98765.72;7005357;28;20822;-81
2022/08/24 15:39:04;;;;;;;1.60;1.50;;;;;;;33.24;27.81;98761.97;7007848;28;20225;-81
2022/08/24 15:42:29;;;;;;;3.33;2.10;;;;;;;33.42;27.36;98755.00;7006701;28;20202;-81
2022/08/24 15:45:51;;;;;;;2.23;1.80;;;;;;;33.43;27.97;98768.59;7006173;28;20214;-81
2022/08/24 15:49:16;;;;;;;2.47;1.70;;;;;;;33.14;27.98;98774.47;7007027;28;20214;-81
2022/08/24 15:52:45;;;;;;;4.60;1.80;;;;;;;34.10;26.70;98782.53;7009515;28;20216;-81
2022/08/24 15:56:30;;;;;;;3.37;2.10;;;;;;;33.89;26.69;98767.16;7021066;28;20221;-81
2022/08/24 15:59:55;;;;;;;1.60;1.50;;;;;;;33.45;27.68;98780.25;7016370;28;20620;-81
2022/08/24 16:03:22;;;;;;;3.53;2.30;;;;;;;33.59;27.45;98777.03;7004309;28;20230;-81
2022/08/24 16:06:46;;;;;;;2.37;1.80;;;;;;;33.25;28.04;98756.03;7026330;28;20197;-80
2022/08/24 16:10:10;;;;;;;2.10;2.00;;;;;;;33.62;27.34;98773.53;7031574;28;20898;-82
2022/08/24 16:13:32;;;;;;;2.13;1.90;;;;;;;33.62;27.50;98781.94;7031039;28;20705;-82
2022/08/24 16:16:56;;;;;;;2.00;1.80;;;;;;;33.83;27.40;98769.38;7031580;28;20201;-82
2022/08/24 16:20:30;;;;;;;3.20;1.80;;;;;;;33.33;28.17;98738.38;7030460;28;20193;-81
2022/08/24 16:23:56;;;;;;;1.60;1.50;;;;;;;33.48;28.31;98775.94;7035270;28;20256;-81
2022/08/24 16:27:17;;;;;;;1.90;1.80;;;;;;;33.03;28.79;98776.16;7037585;28;20186;-82
2022/08/24 16:30:46;;;;;;;2.17;1.97;;;;;;;33.56;27.96;98772.16;7036142;28;20205;-81